Terminal Aerodrome Forecast
Issued by NWS Green Bay, WI

Home | Current Version | Previous Version | Text Only | Print | Product List | Glossary Off
Versions: 1 2 3 4 5 6 7 8 9 10 11 12 13 14 15 16 17 18 19 20 21 22 23 24 25 26 27 28 29 30 31 32 33 34 35 36 37 38 39

000
FTUS43 KGRB 311700
TAFGRB
TAF
KGRB 311720Z 3118/0118 29012G17KT P6SM SCT035 BKN060
      TEMPO 3118/3121 BKN035
     FM010000 34006KT P6SM SCT040 SCT150
     FM010600 03005KT P6SM SCT100
     FM011000 03004KT P6SM SCT015 BKN100
     FM011400 13005KT P6SM BKN090=

USA.gov is the U.S. government's official web portal to all federal, state and local government web resources and services.